D/T METAR WX W/DIR W/SPE G/SPE TEMP DEWP
7/06/20 09:20 EGMC 070820Z 28010KT 9999 SCT014 13/09 Q1007 W (280°) 11.5mph 13°C 9°C
7/06/20 08:50 EGMC 070750Z 27009KT 9999 FEW013 12/09 Q1007 W (270°) 10.4mph 12°C 9°C
7/06/20 07:50 EGMC 070650Z 25008KT CAVOK 11/09 Q1006 WSW (250°) 9.2mph 11°C 9°C
7/06/20 06:50 EGMC 070550Z 26006KT CAVOK 10/09 Q1005 W (260°) 6.9mph 10°C 9°C
7/06/20 05:50 EGMC 070450Z 27007KT CAVOK 09/08 Q1004 W (270°) 8.1mph 9°C 8°C
7/06/20 04:50 EGMC 070350Z 26007KT CAVOK 08/07 Q1004 W (260°) 8.1mph 8°C 7°C
7/06/20 04:20 EGMC 070320Z 25007KT CAVOK 08/07 Q1003 WSW (250°) 8.1mph 8°C 7°C
7/06/20 03:50 EGMC 070250Z 25007KT CAVOK 08/07 Q1003 WSW (250°) 8.1mph 8°C 7°C
7/06/20 01:50 EGMC 070050Z 27006KT CAVOK 09/08 Q1003 W (270°) 6.9mph 9°C 8°C
7/06/20 00:50 EGMC 062350Z 25006KT CAVOK 08/08 Q1002 WSW (250°) 6.9mph 8°C 8°C
7/06/20 00:20 EGMC 062320Z 26006KT CAVOK 08/08 Q1002 W (260°) 6.9mph 8°C 8°C
6/06/20 23:50 EGMC 062250Z 26006KT CAVOK 09/08 Q1002 W (260°) 6.9mph 9°C 8°C
6/06/20 23:20 EGMC 062220Z 26006KT CAVOK 09/08 Q1002 W (260°) 6.9mph 9°C 8°C
6/06/20 22:50 EGMC 062150Z 26007KT CAVOK 09/08 Q1001 W (260°) 8.1mph 9°C 8°C
6/06/20 21:50 EGMC 062050Z 26008KT CAVOK 10/08 Q1001 W (260°) 9.2mph 10°C 8°C
6/06/20 21:20 EGMC 062020Z 25009KT CAVOK 10/08 Q1000 WSW (250°) 10.4mph 10°C 8°C
6/06/20 20:50 EGMC 061950Z 24009KT CAVOK 10/08 Q1000 WSW (240°) 10.4mph 10°C 8°C
6/06/20 20:20 EGMC 061920Z 25010KT CAVOK 10/08 Q0999 WSW (250°) 11.5mph 10°C 8°C
6/06/20 19:20 EGMC 061820Z 23010KT 9999 -SHRA FEW048 10/08 Q0999 -SHRA SW (230°) 11.5mph 10°C 8°C
6/06/20 18:50 EGMC 061750Z 27014KT 9999 -SHRA FEW048 10/08 Q0999 -SHRA W (270°) 16.1mph 10°C 8°C
6/06/20 17:50 EGMC 061650Z 27014KT 6000 -SHRA BKN024 13/08 Q0998 -SHRA W (270°) 16.1mph 13°C 8°C
6/06/20 17:20 EGMC 061620Z 24017KT 9999 SCT024 BKN033 13/08 Q0998 WSW (240°) 19.6mph 13°C 8°C
6/06/20 16:50 EGMC 061550Z 24019KT 9999 SCT023 13/08 Q0997 WSW (240°) 21.9mph 13°C 8°C
6/06/20 16:20 EGMC 061520Z 24020KT 9999 FEW023 BKN026 13/08 Q0997 WSW (240°) 23.0mph 13°C 8°C
6/06/20 15:50 EGMC 061450Z 23020KT 9999 FEW012 BKN022 13/08 Q0997 SW (230°) 23.0mph 13°C 8°C
6/06/20 15:20 EGMC 061420Z 23020KT 9999 BKN024 12/08 Q0998 SW (230°) 23.0mph 12°C 8°C
6/06/20 14:50 EGMC 061350Z 24017KT 9999 BKN024 12/08 Q0998 WSW (240°) 19.6mph 12°C 8°C
6/06/20 14:20 EGMC 061320Z 23019KT 9999 RA SCT024 BKN030 11/08 Q0998 RA SW (230°) 21.9mph 11°C 8°C
6/06/20 13:50 EGMC 061250Z 25020KT 9999 RA FEW008 BKN021 11/07 Q0998 RA WSW (250°) 23.0mph 11°C 7°C
6/06/20 13:20 EGMC 061220Z 24019KT 9999 RA FEW008 BKN021 11/07 Q0998 RA WSW (240°) 21.9mph 11°C 7°C
6/06/20 12:50 EGMC 061150Z 25016G26KT 9999 -RA FEW015 BKN029 11/07 Q0997 -RA WSW (250°) 18.4mph 29.9mph 11°C 7°C
6/06/20 12:20 EGMC 061120Z 25020G30KT 9999 -RA BKN042 13/04 Q0997 -RA WSW (250°) 23.0mph 34.5mph 13°C 4°C
6/06/20 11:20 EGMC 061020Z 24016G26KT 9999 BKN039 12/03 Q0997 WSW (240°) 18.4mph 29.9mph 12°C 3°C
6/06/20 10:50 EGMC 060950Z 24020KT 9999 BKN039 12/02 Q0997 WSW (240°) 23.0mph 12°C 2°C
6/06/20 10:20 EGMC 060920Z 25015KT 9999 BKN039 12/02 Q0997 WSW (250°) 17.3mph 12°C 2°C
6/06/20 09:50 EGMC 060850Z 25019KT 9999 SCT039 12/03 Q0997 WSW (250°) 21.9mph 12°C 3°C
6/06/20 09:20 EGMC 060820Z 25019KT 9999 FEW039 12/02 Q0997 WSW (250°) 21.9mph 12°C 2°C
6/06/20 08:50 EGMC 060750Z 26022KT 9999 FEW018 11/02 Q0997 W (260°) 25.3mph 11°C 2°C
6/06/20 08:20 EGMC 060720Z 25016G26KT 9999 FEW018 10/02 Q0997 WSW (250°) 18.4mph 29.9mph 10°C 2°C
6/06/20 07:50 EGMC 060650Z 25018KT 9999 FEW018 10/03 Q0997 WSW (250°) 20.7mph 10°C 3°C
6/06/20 07:20 EGMC 060620Z 24015KT 9999 FEW020 10/03 Q0997 WSW (240°) 17.3mph 10°C 3°C
6/06/20 06:50 EGMC 060550Z 25015KT 9999 FEW020 09/03 Q0997 WSW (250°) 17.3mph 9°C 3°C
6/06/20 05:50 EGMC 060450Z 25012KT 9999 FEW020 08/03 Q0997 WSW (250°) 13.8mph 8°C 3°C
6/06/20 05:20 EGMC 060420Z 25010KT 9999 FEW020 08/03 Q0997 WSW (250°) 11.5mph 8°C 3°C
6/06/20 04:50 EGMC 060350Z 25011KT CAVOK 08/03 Q0997 WSW (250°) 12.7mph 8°C 3°C
6/06/20 04:20 EGMC 060320Z 26011KT CAVOK 08/02 Q0997 W (260°) 12.7mph 8°C 2°C
6/06/20 03:50 EGMC 060250Z 26010KT CAVOK 08/03 Q0997 W (260°) 11.5mph 8°C 3°C
6/06/20 02:50 EGMC 060150Z 26009KT CAVOK 09/03 Q0997 W (260°) 10.4mph 9°C 3°C
6/06/20 01:50 EGMC 060050Z 27008KT CAVOK 09/02 Q0997 W (270°) 9.2mph 9°C 2°C
6/06/20 01:20 EGMC 060020Z 26007KT CAVOK 10/02 Q0997 W (260°) 8.1mph 10°C 2°C
6/06/20 00:50 EGMC 052350Z 26008KT CAVOK 10/02 Q0997 W (260°) 9.2mph 10°C 2°C
6/06/20 00:20 EGMC 052320Z 27008KT CAVOK 10/02 Q0997 W (270°) 9.2mph 10°C 2°C
5/06/20 23:20 EGMC 052220Z 27009KT CAVOK 11/02 Q0997 W (270°) 10.4mph 11°C 2°C
5/06/20 22:50 EGMC 052150Z 27010KT CAVOK 11/02 Q0997 W (270°) 11.5mph 11°C 2°C
5/06/20 22:20 EGMC 052120Z 27009KT CAVOK 12/01 Q0997 W (270°) 10.4mph 12°C 1°C
5/06/20 21:50 EGMC 052050Z 26008KT CAVOK 12/02 Q0997 W (260°) 9.2mph 12°C 2°C
5/06/20 20:50 EGMC 051950Z 25009KT CAVOK 13/02 Q0996 WSW (250°) 10.4mph 13°C 2°C
5/06/20 20:20 EGMC 051920Z 26009KT CAVOK 13/01 Q0996 W (260°) 10.4mph 13°C 1°C
5/06/20 19:50 EGMC 051850Z 25011KT 9999 FEW045 13/04 Q0996 WSW (250°) 12.7mph 13°C 4°C
5/06/20 19:20 EGMC 051820Z 24011KT 9999 FEW045 13/04 Q0996 WSW (240°) 12.7mph 13°C 4°C
5/06/20 18:50 EGMC 051750Z 240P99KT 9999 FEW045 13/03 Q0996 N (0°) 13°C 3°C
5/06/20 18:20 EGMC 051720Z 24011KT 9999 FEW045 15/04 Q0996 WSW (240°) 12.7mph 15°C 4°C
5/06/20 17:50 EGMC 051650Z 24014KT 9999 FEW039 14/03 Q0996 WSW (240°) 16.1mph 14°C 3°C
5/06/20 17:20 EGMC 051620Z 26012KT 9999 FEW024 14/01 Q0996 W (260°) 13.8mph 14°C 1°C
5/06/20 16:20 EGMC 051520Z 29013G24KT 250V340 9999 VCSH FEW024 14/03 Q0996 VCSH WNW (290°) 15.0mph 27.6mph 14°C 3°C
5/06/20 15:50 EGMC 051450Z 27015KT 250V320 9999 FEW024 14/04 Q0996 W (270°) 17.3mph 14°C 4°C
5/06/20 15:20 EGMC 051420Z 30008KT 240V320 8000 SHRA FEW035 SCT048 14/04 Q0996 SHRA WNW (300°) 9.2mph 14°C 4°C
5/06/20 14:50 EGMC 051350Z 27014KT 250V320 9999 FEW034 14/04 Q0996 W (270°) 16.1mph 14°C 4°C
5/06/20 13:50 EGMC 051250Z 29008KT 9999 FEW034 12/06 Q0996 WNW (290°) 9.2mph 12°C 6°C
5/06/20 13:20 EGMC 051220Z 26018KT 9999 SCT030 12/06 Q0996 W (260°) 20.7mph 12°C 6°C
5/06/20 12:50 EGMC 051150Z 30009KT 9999 SCT033 12/04 Q0995 WNW (300°) 10.4mph 12°C 4°C
5/06/20 11:50 EGMC 051050Z 32014KT 260V350 9999 FEW025 SCT029 12/06 Q0995 NW (320°) 16.1mph 12°C 6°C
5/06/20 11:20 EGMC 051020Z 31011KT 280V350 9999 FEW022 SCT026 12/07 Q0995 NW (310°) 12.7mph 12°C 7°C
5/06/20 10:20 EGMC 050920Z 28014KT 240V330 9999 BKN033 12/06 Q0994 W (280°) 16.1mph 12°C 6°C
5/06/20 09:50 EGMC 050850Z 28014KT 250V320 9999 FEW030 BKN034 12/06 Q0993 W (280°) 16.1mph 12°C 6°C
5/06/20 09:20 EGMC 050820Z 28016KT 250V320 9999 FEW024 SCT030 12/06 Q0994 W (280°) 18.4mph 12°C 6°C
5/06/20 08:50 EGMC 050750Z 27015KT 260V320 9999 SCT023 12/06 Q0994 W (270°) 17.3mph 12°C 6°C
5/06/20 08:20 EGMC 050720Z 29012KT 260V320 9999 FEW023 12/07 Q0994 WNW (290°) 13.8mph 12°C 7°C
5/06/20 07:50 EGMC 050650Z 27012KT 250V310 9999 FEW023 11/07 Q0994 W (270°) 13.8mph 11°C 7°C
5/06/20 06:50 EGMC 050550Z 26008KT 9999 FEW044 10/08 Q0994 W (260°) 9.2mph 10°C 8°C
5/06/20 06:20 EGMC 050520Z 27009KT 9999 FEW044 10/08 Q0994 W (270°) 10.4mph 10°C 8°C
5/06/20 05:50 EGMC 050450Z 28008KT 9999 FEW015 SCT044 10/09 Q0994 W (280°) 9.2mph 10°C 9°C
5/06/20 05:20 EGMC 050420Z 25009KT 9999 -SHRA FEW004 SCT018 SCT036 10/09 Q0995 -SHRA WSW (250°) 10.4mph 10°C 9°C
5/06/20 04:20 EGMC 050320Z 24009KT 9999 FEW040 11/09 Q0995 WSW (240°) 10.4mph 11°C 9°C
5/06/20 03:50 EGMC 050250Z 24010KT 9999 FEW025 11/09 Q0995 WSW (240°) 11.5mph 11°C 9°C
5/06/20 02:50 EGMC 050150Z 23009KT 9999 FEW025 11/09 Q0996 SW (230°) 10.4mph 11°C 9°C
5/06/20 02:20 EGMC 050120Z 24007KT 9999 FEW025 11/09 Q0997 WSW (240°) 8.1mph 11°C 9°C
5/06/20 01:20 EGMC 050020Z 24006KT CAVOK 11/08 Q0998 WSW (240°) 6.9mph 11°C 8°C
5/06/20 00:50 EGMC 042350Z 25008KT 9999 FEW025 11/08 Q0998 WSW (250°) 9.2mph 11°C 8°C
5/06/20 00:20 EGMC 042320Z 24007KT 9999 FEW023 11/08 Q0998 WSW (240°) 8.1mph 11°C 8°C
4/06/20 23:20 EGMC 042220Z 22004KT 9999 FEW020 10/08 Q0999 SW (220°) 4.6mph 10°C 8°C
4/06/20 22:50 EGMC 042150Z 23003KT 9999 FEW020 SCT046 10/09 Q1000 SW (230°) 3.5mph 10°C 9°C
4/06/20 22:20 EGMC 042120Z VRB02KT 9999 FEW020 BKN045 10/09 Q1000 N (0°) 2.3mph 10°C 9°C
4/06/20 21:50 EGMC 042050Z VRB02KT 9999 FEW020 BKN042 10/09 Q1000 N (0°) 2.3mph 10°C 9°C
4/06/20 21:20 EGMC 042020Z VRB02KT 9999 FEW020 BKN045 10/09 Q1000 N (0°) 2.3mph 10°C 9°C
4/06/20 20:20 EGMC 041920Z 28002KT 9999 VCSH FEW012 BKN035 10/09 Q1001 VCSH W (280°) 2.3mph 10°C 9°C